createdAt,value
2018-03-24T00:02:25.619Z,7.20
2018-03-24T00:05:01.450Z,7.10
2018-03-24T00:10:14.923Z,7.00
2018-03-24T00:12:49.037Z,7.00
2018-03-24T00:15:23.329Z,7.10
2018-03-24T00:17:58.418Z,7.10
2018-03-24T00:20:33.258Z,7.00
2018-03-24T00:23:10.683Z,7.00
2018-03-24T00:25:48.016Z,7.00
2018-03-24T00:28:25.726Z,7.00
2018-03-24T00:31:01.349Z,7.00
2018-03-24T00:33:38.218Z,7.00
2018-03-24T00:36:12.654Z,7.00
2018-03-24T00:39:10.580Z,7.00
2018-03-24T00:41:46.641Z,7.00
2018-03-24T00:44:23.055Z,7.00
2018-03-24T00:46:58.928Z,7.00
2018-03-24T00:49:32.967Z,7.00
2018-03-24T00:52:06.871Z,7.00
2018-03-24T00:54:41.766Z,7.00
2018-03-24T00:57:16.715Z,7.00
2018-03-24T00:59:51.277Z,7.00
2018-03-24T01:02:25.061Z,7.00
2018-03-24T01:04:59.993Z,6.90
2018-03-24T01:07:34.783Z,6.90
2018-03-24T01:10:10.332Z,7.00
2018-03-24T01:12:44.329Z,7.00
2018-03-24T01:15:19.808Z,7.00
2018-03-24T01:17:54.456Z,7.00
2018-03-24T01:20:31.508Z,7.00
2018-03-24T01:23:05.168Z,7.00
2018-03-24T01:25:40.717Z,7.00
2018-03-24T01:28:19.976Z,7.00
2018-03-24T01:30:53.779Z,7.00
2018-03-24T01:33:31.938Z,6.90
2018-03-24T01:36:05.585Z,6.90
2018-03-24T01:38:39.380Z,6.90
2018-03-24T01:41:13.969Z,7.00
2018-03-24T01:43:48.287Z,6.90
2018-03-24T01:46:22.938Z,6.80
2018-03-24T01:48:57.620Z,6.80
2018-03-24T01:51:31.310Z,6.80
2018-03-24T01:54:06.018Z,6.80
2018-03-24T01:56:40.351Z,6.80
2018-03-24T01:59:15.384Z,6.90
2018-03-24T02:01:49.041Z,6.90
2018-03-24T02:04:23.907Z,6.90
2018-03-24T02:06:58.504Z,6.90
2018-03-24T02:09:34.221Z,6.90
2018-03-24T02:12:12.288Z,6.90
2018-03-24T02:14:46.975Z,6.90
2018-03-24T02:17:22.014Z,6.90
2018-03-24T02:19:56.326Z,6.90
2018-03-24T02:22:31.370Z,6.80
2018-03-24T02:25:08.190Z,6.80
2018-03-24T02:27:44.096Z,6.70
2018-03-24T02:30:20.155Z,6.70
2018-03-24T02:32:54.988Z,6.60
2018-03-24T02:35:29.102Z,6.60
2018-03-24T02:38:03.251Z,6.60
2018-03-24T02:40:36.982Z,6.60
2018-03-24T02:43:11.247Z,6.60
2018-03-24T02:45:45.011Z,6.60
2018-03-24T02:48:19.023Z,6.50
2018-03-24T02:50:53.091Z,6.50
2018-03-24T02:53:30.389Z,6.50
2018-03-24T02:56:06.841Z,6.50
2018-03-24T02:58:42.838Z,6.40
2018-03-24T03:01:20.366Z,6.40
2018-03-24T03:03:55.225Z,6.40
2018-03-24T03:06:34.020Z,6.40
2018-03-24T03:09:10.800Z,6.40
2018-03-24T03:11:45.080Z,6.40
2018-03-24T03:14:19.808Z,6.40
2018-03-24T03:16:54.988Z,6.40
2018-03-24T03:19:29.504Z,6.40
2018-03-24T03:22:03.070Z,6.40
2018-03-24T03:24:37.352Z,6.40
2018-03-24T03:27:11.485Z,6.40
2018-03-24T03:29:46.247Z,6.40
2018-03-24T03:32:22.456Z,6.40
2018-03-24T03:34:57.569Z,6.40
2018-03-24T03:37:32.193Z,6.40
2018-03-24T03:40:07.582Z,6.40
2018-03-24T03:42:54.086Z,6.40
2018-03-24T03:45:29.153Z,6.30
2018-03-24T03:48:03.673Z,6.30
2018-03-24T03:50:39.210Z,6.30
2018-03-24T03:53:14.112Z,6.30
2018-03-24T03:55:48.788Z,6.30
2018-03-24T03:58:25.012Z,6.30
2018-03-24T04:00:59.438Z,6.30
2018-03-24T04:03:34.129Z,6.30
2018-03-24T04:06:11.115Z,6.30
2018-03-24T04:08:44.913Z,6.30
2018-03-24T04:11:18.652Z,6.30
2018-03-24T04:13:53.292Z,6.30
2018-03-24T04:16:29.065Z,6.30
2018-03-24T04:19:06.722Z,6.30
2018-03-24T04:21:41.382Z,6.20
2018-03-24T04:24:18.345Z,6.20
2018-03-24T04:26:53.336Z,6.20
2018-03-24T04:29:28.446Z,6.20
2018-03-24T04:32:07.045Z,6.20
2018-03-24T04:34:41.073Z,6.20
2018-03-24T04:40:20.654Z,6.20
2018-03-24T04:42:55.432Z,6.20
2018-03-24T04:45:30.809Z,6.20
2018-03-24T04:48:06.756Z,6.20
2018-03-24T04:50:40.981Z,6.20
2018-03-24T04:53:14.923Z,6.10
2018-03-24T04:55:50.688Z,6.10
2018-03-24T04:58:26.984Z,6.10
2018-03-24T05:03:42.621Z,6.10
2018-03-24T05:06:18.788Z,6.00
2018-03-24T05:08:52.847Z,6.00
2018-03-24T05:11:28.386Z,6.00
2018-03-24T05:14:04.733Z,6.00
2018-03-24T05:16:47.102Z,6.00
2018-03-24T05:19:22.140Z,6.00
2018-03-24T05:21:58.431Z,6.00
2018-03-24T05:24:38.584Z,6.00
2018-03-24T05:27:15.283Z,6.00
2018-03-24T05:29:48.940Z,6.00
2018-03-24T05:32:26.572Z,5.90
2018-03-24T05:35:01.865Z,5.90
2018-03-24T05:37:37.378Z,5.90
2018-03-24T05:40:14.458Z,5.90
2018-03-24T05:42:51.080Z,5.90
2018-03-24T05:45:26.530Z,5.90
2018-03-24T05:48:02.588Z,5.90
2018-03-24T05:50:37.679Z,5.90
2018-03-24T05:53:12.077Z,5.90
2018-03-24T05:55:50.462Z,5.90
2018-03-24T05:58:27.722Z,5.90
2018-03-24T06:01:03.327Z,5.90
2018-03-24T06:06:17.892Z,5.90
2018-03-24T06:08:53.148Z,6.00
2018-03-24T06:11:30.439Z,6.00
2018-03-24T06:14:08.010Z,6.00
2018-03-24T06:16:42.973Z,6.10
2018-03-24T06:19:18.713Z,6.10
2018-03-24T06:21:54.638Z,6.10
2018-03-24T06:24:28.328Z,6.20
2018-03-24T06:27:02.556Z,6.20
2018-03-24T06:29:38.253Z,6.30
2018-03-24T06:32:18.110Z,6.30
2018-03-24T06:34:53.412Z,6.30
2018-03-24T06:37:29.107Z,6.40
2018-03-24T06:40:04.693Z,6.40
2018-03-24T06:42:40.964Z,6.40
2018-03-24T06:45:17.624Z,6.50
2018-03-24T06:48:03.304Z,6.60
2018-03-24T06:50:39.625Z,6.60
2018-03-24T06:53:15.936Z,6.70
2018-03-24T06:55:50.929Z,6.60
2018-03-24T06:58:27.268Z,6.70
2018-03-24T07:01:02.190Z,6.70
2018-03-24T07:03:36.825Z,6.80
2018-03-24T07:08:50.514Z,6.90
2018-03-24T07:11:24.636Z,6.80
2018-03-24T07:13:58.384Z,6.90
2018-03-24T07:16:33.783Z,6.90
2018-03-24T07:19:11.453Z,7.00
2018-03-24T07:21:46.630Z,7.10
2018-03-24T07:24:22.278Z,7.10
2018-03-24T07:26:56.113Z,7.10
2018-03-24T07:29:31.465Z,7.20
2018-03-24T07:32:07.431Z,7.30
2018-03-24T07:34:42.239Z,7.30
2018-03-24T07:37:16.621Z,7.40
2018-03-24T07:39:55.406Z,7.60
2018-03-24T07:42:29.436Z,7.60
2018-03-24T07:45:04.133Z,7.80
2018-03-24T07:47:37.977Z,7.90
2018-03-24T07:50:15.088Z,7.90
2018-03-24T07:52:50.197Z,8.10
2018-03-24T07:55:24.029Z,8.20
2018-03-24T07:57:58.093Z,8.40
2018-03-24T08:00:32.728Z,8.50
2018-03-24T08:03:08.695Z,8.70
2018-03-24T08:05:46.221Z,8.70
2018-03-24T08:08:21.356Z,8.70
2018-03-24T08:10:55.053Z,8.80
2018-03-24T08:13:30.075Z,8.90
2018-03-24T08:16:04.521Z,8.90
2018-03-24T08:18:38.417Z,9.10
2018-03-24T08:21:12.184Z,9.10
2018-03-24T08:23:48.372Z,9.10
2018-03-24T08:26:23.510Z,9.20
2018-03-24T08:28:58.524Z,9.30
2018-03-24T08:31:32.369Z,9.30
2018-03-24T08:34:07.380Z,9.50
2018-03-24T08:36:41.920Z,9.50
2018-03-24T08:39:17.528Z,9.50
2018-03-24T08:41:51.628Z,9.70
2018-03-24T08:44:25.357Z,9.90
2018-03-24T08:46:59.743Z,10.10
2018-03-24T08:49:33.451Z,10.30
2018-03-24T08:52:07.214Z,10.50
2018-03-24T08:54:42.661Z,10.70
2018-03-24T08:57:16.470Z,10.60
2018-03-24T08:59:50.332Z,10.90
2018-03-24T09:02:24.355Z,11.00
2018-03-24T09:05:05.060Z,11.00
2018-03-24T09:07:39.464Z,11.10
2018-03-24T09:10:13.945Z,11.10
2018-03-24T09:12:47.966Z,11.20
2018-03-24T09:15:21.657Z,11.30
2018-03-24T09:17:56.213Z,11.40
2018-03-24T09:20:31.722Z,11.50
2018-03-24T09:23:06.657Z,11.80
2018-03-24T09:25:40.572Z,11.80
2018-03-24T09:28:14.377Z,11.80
2018-03-24T09:30:50.633Z,11.80
2018-03-24T09:33:25.497Z,11.90
2018-03-24T09:36:01.081Z,12.40
2018-03-24T09:38:38.347Z,12.30
2018-03-24T09:41:13.779Z,12.40
2018-03-24T09:43:48.470Z,12.40
2018-03-24T09:46:22.088Z,12.60
2018-03-24T09:48:56.842Z,13.00
2018-03-24T09:51:30.420Z,13.10
2018-03-24T09:54:04.181Z,13.40
2018-03-24T09:56:37.976Z,13.60
2018-03-24T09:59:12.478Z,13.80
2018-03-24T10:01:49.796Z,13.90
2018-03-24T10:04:25.022Z,14.00
2018-03-24T10:06:58.813Z,13.80
2018-03-24T10:09:33.301Z,13.90
2018-03-24T10:12:07.976Z,13.50
2018-03-24T10:14:42.440Z,13.40
2018-03-24T10:17:17.592Z,13.40
2018-03-24T10:19:52.614Z,13.40
2018-03-24T10:22:50.517Z,13.30
2018-03-24T10:25:32.236Z,13.20
2018-03-24T10:28:13.336Z,13.50
2018-03-24T10:30:48.893Z,13.40
2018-03-24T10:33:23.313Z,13.40
2018-03-24T10:35:56.952Z,13.30
2018-03-24T10:38:31.231Z,13.60
2018-03-24T10:41:05.573Z,13.90
2018-03-24T10:43:40.229Z,13.90
2018-03-24T10:46:14.151Z,13.90
2018-03-24T10:48:48.296Z,13.70
2018-03-24T10:51:21.937Z,13.70
2018-03-24T10:53:57.727Z,13.80
2018-03-24T10:56:32.494Z,13.80
2018-03-24T10:59:08.189Z,14.00
2018-03-24T11:01:43.364Z,14.10
2018-03-24T11:04:19.275Z,14.10
2018-03-24T11:06:54.058Z,14.20
2018-03-24T11:09:33.728Z,14.30
2018-03-24T11:12:08.874Z,14.20
2018-03-24T11:14:44.231Z,14.60
2018-03-24T11:17:18.739Z,14.60
2018-03-24T11:19:53.454Z,14.70
2018-03-24T11:22:27.074Z,14.80
2018-03-24T11:25:00.879Z,14.70
2018-03-24T11:27:35.724Z,14.50
2018-03-24T11:30:09.477Z,14.50
2018-03-24T11:32:43.192Z,14.30
2018-03-24T11:35:17.280Z,14.10
2018-03-24T11:37:50.960Z,13.80
2018-03-24T11:40:25.978Z,13.70
2018-03-24T11:43:02.412Z,13.60
2018-03-24T11:45:38.747Z,13.40
2018-03-24T11:48:12.768Z,13.10
2018-03-24T11:50:47.096Z,12.70
2018-03-24T11:53:20.740Z,12.70
2018-03-24T11:55:54.600Z,12.60
2018-03-24T11:58:29.094Z,12.60
2018-03-24T12:01:05.836Z,12.60
2018-03-24T12:03:40.494Z,12.60
2018-03-24T12:06:14.754Z,12.40
2018-03-24T12:08:49.907Z,12.30
2018-03-24T12:11:24.787Z,12.30
2018-03-24T12:13:58.789Z,12.30
2018-03-24T12:16:32.420Z,12.20
2018-03-24T12:19:06.246Z,12.30
2018-03-24T12:21:40.341Z,12.50
2018-03-24T12:24:16.924Z,12.60
2018-03-24T12:26:52.244Z,12.90
2018-03-24T12:29:26.280Z,12.90
2018-03-24T12:32:00.243Z,13.10
2018-03-24T12:34:35.224Z,13.30
2018-03-24T12:37:10.813Z,13.40
2018-03-24T12:39:45.028Z,13.40
2018-03-24T12:42:20.737Z,13.30
2018-03-24T12:44:55.556Z,13.40
2018-03-24T12:47:31.075Z,13.30
2018-03-24T12:50:10.949Z,13.40
2018-03-24T12:52:46.051Z,13.40
2018-03-24T12:55:19.769Z,13.40
2018-03-24T12:57:53.414Z,13.20
2018-03-24T13:00:27.068Z,13.30
2018-03-24T13:03:00.757Z,13.30
2018-03-24T13:05:34.366Z,13.90
2018-03-24T13:08:08.062Z,14.40
2018-03-24T13:10:41.870Z,15.00
2018-03-24T13:13:15.544Z,15.40
2018-03-24T13:15:51.523Z,16.00
2018-03-24T13:18:26.358Z,16.00
2018-03-24T13:21:00.796Z,16.20
2018-03-24T13:23:35.390Z,16.30
2018-03-24T13:26:09.803Z,15.90
2018-03-24T13:28:43.465Z,15.90
2018-03-24T13:31:17.357Z,15.70
2018-03-24T13:33:51.834Z,15.30
2018-03-24T13:36:25.740Z,15.00
2018-03-24T13:38:59.585Z,14.90
2018-03-24T13:41:33.380Z,14.90
2018-03-24T13:44:07.152Z,14.80
2018-03-24T13:46:42.217Z,14.80
2018-03-24T13:49:17.667Z,14.60
2018-03-24T13:51:51.423Z,14.60
2018-03-24T13:54:27.492Z,14.50
2018-03-24T13:57:01.677Z,14.50
2018-03-24T13:59:36.189Z,14.60
2018-03-24T14:02:10.874Z,14.60
2018-03-24T14:04:47.254Z,14.50
2018-03-24T14:07:22.046Z,14.00
2018-03-24T14:09:57.285Z,13.60
2018-03-24T14:12:31.995Z,13.60
2018-03-24T14:15:07.832Z,13.50
2018-03-24T14:17:43.229Z,13.70
2018-03-24T14:20:19.246Z,13.60
2018-03-24T14:22:52.833Z,13.70
2018-03-24T14:25:26.544Z,13.50
2018-03-24T14:28:00.597Z,13.50
2018-03-24T14:30:34.353Z,13.30
2018-03-24T14:33:08.316Z,13.30
2018-03-24T14:35:43.707Z,13.20
2018-03-24T14:38:17.463Z,13.10
2018-03-24T14:40:51.477Z,13.00
2018-03-24T14:43:25.232Z,13.00
2018-03-24T14:45:58.894Z,13.20
2018-03-24T14:48:33.597Z,13.20
2018-03-24T14:51:07.334Z,13.20
2018-03-24T14:53:41.950Z,13.00
2018-03-24T14:56:15.527Z,13.00
2018-03-24T14:58:49.227Z,13.10
2018-03-24T15:01:24.705Z,13.30
2018-03-24T15:03:58.557Z,13.30
2018-03-24T15:06:35.999Z,13.30
2018-03-24T15:09:10.635Z,13.40
2018-03-24T15:11:45.230Z,13.40
2018-03-24T15:14:20.201Z,13.40
2018-03-24T15:16:56.718Z,13.30
2018-03-24T15:19:30.333Z,13.20
2018-03-24T15:22:05.922Z,12.90
2018-03-24T15:24:40.173Z,12.80
2018-03-24T15:27:14.825Z,12.70
2018-03-24T15:30:00.482Z,12.60
2018-03-24T15:32:46.301Z,12.60
2018-03-24T15:35:36.686Z,12.50
2018-03-24T15:38:13.402Z,12.40
2018-03-24T15:40:49.049Z,12.40
2018-03-24T15:43:23.161Z,12.30
2018-03-24T15:46:05.062Z,12.30
2018-03-24T15:48:39.146Z,12.20
2018-03-24T15:51:14.923Z,12.10
2018-03-24T15:53:51.654Z,12.00
2018-03-24T15:56:30.634Z,12.00
2018-03-24T15:59:05.047Z,12.00
2018-03-24T16:01:44.462Z,12.00
2018-03-24T16:04:18.204Z,12.10
2018-03-24T16:06:52.744Z,12.10
2018-03-24T16:09:27.545Z,12.10
2018-03-24T16:12:03.641Z,12.00
2018-03-24T16:14:37.982Z,11.80
2018-03-24T16:17:12.414Z,11.80
2018-03-24T16:19:46.871Z,11.80
2018-03-24T16:22:20.574Z,11.70
2018-03-24T16:24:54.272Z,11.70
2018-03-24T16:27:28.760Z,11.60
2018-03-24T16:30:02.536Z,11.60
2018-03-24T16:32:36.209Z,11.40
2018-03-24T16:35:11.480Z,11.30
2018-03-24T16:37:46.611Z,11.20
2018-03-24T16:40:21.450Z,11.10
2018-03-24T16:42:57.406Z,10.90
2018-03-24T16:45:31.758Z,10.90
2018-03-24T16:48:05.785Z,10.90
2018-03-24T16:50:39.549Z,10.80
2018-03-24T16:53:14.668Z,10.80
2018-03-24T16:55:49.352Z,10.80
2018-03-24T16:58:23.884Z,10.60
2018-03-24T17:00:58.905Z,10.60
2018-03-24T17:03:32.706Z,10.60
2018-03-24T17:06:06.523Z,10.60
2018-03-24T17:08:40.592Z,10.50
2018-03-24T17:11:15.187Z,10.40
2018-03-24T17:13:50.367Z,10.30
2018-03-24T17:16:24.244Z,10.30
2018-03-24T17:18:57.891Z,10.20
2018-03-24T17:21:31.753Z,10.20
2018-03-24T17:24:05.584Z,10.20
2018-03-24T17:26:41.991Z,10.10
2018-03-24T17:29:16.613Z,10.00
2018-03-24T17:31:50.397Z,10.00
2018-03-24T17:34:25.451Z,10.00
2018-03-24T17:36:59.267Z,10.00
2018-03-24T17:39:33.511Z,10.00
2018-03-24T17:42:09.296Z,9.90
2018-03-24T17:44:43.699Z,9.90
2018-03-24T17:47:18.973Z,9.80
2018-03-24T17:49:54.170Z,9.80
2018-03-24T17:52:29.188Z,9.70
2018-03-24T17:55:04.496Z,9.70
2018-03-24T17:57:42.909Z,9.70
2018-03-24T18:00:17.155Z,9.60
2018-03-24T18:02:51.560Z,9.60
2018-03-24T18:05:26.286Z,9.60
2018-03-24T18:07:59.921Z,9.50
2018-03-24T18:10:33.758Z,9.50
2018-03-24T18:13:08.394Z,9.50
2018-03-24T18:15:42.317Z,9.50
2018-03-24T18:18:16.880Z,9.40
2018-03-24T18:20:50.759Z,9.40
2018-03-24T18:23:25.257Z,9.30
2018-03-24T18:25:59.097Z,9.30
2018-03-24T18:28:32.869Z,9.30
2018-03-24T18:31:06.749Z,9.20
2018-03-24T18:33:41.227Z,9.10
2018-03-24T18:36:15.678Z,9.10
2018-03-24T18:38:53.433Z,9.10
2018-03-24T18:41:27.229Z,9.10
2018-03-24T18:44:05.466Z,9.00
2018-03-24T18:46:42.208Z,9.00
2018-03-24T18:49:15.946Z,8.90
2018-03-24T18:51:51.050Z,8.90
2018-03-24T18:54:26.689Z,8.80
2018-03-24T18:57:05.546Z,8.70
2018-03-24T18:59:39.344Z,8.70
2018-03-24T19:02:14.842Z,8.60
2018-03-24T19:04:48.806Z,8.50
2018-03-24T19:07:25.710Z,8.30
2018-03-24T19:10:00.847Z,8.30
2018-03-24T19:12:35.331Z,8.20
2018-03-24T19:15:10.017Z,8.10
2018-03-24T19:17:45.156Z,7.90
2018-03-24T19:20:18.822Z,7.80
2018-03-24T19:22:54.348Z,7.80
2018-03-24T19:25:33.541Z,7.70
2018-03-24T19:28:08.552Z,7.80
2018-03-24T19:30:47.391Z,7.70
2018-03-24T19:33:21.995Z,7.60
2018-03-24T19:35:57.049Z,7.60
2018-03-24T19:38:32.192Z,7.50
2018-03-24T19:41:06.444Z,7.40
2018-03-24T19:43:40.666Z,7.30
2018-03-24T19:46:16.072Z,7.30
2018-03-24T19:48:53.077Z,7.20
2018-03-24T19:51:35.329Z,7.20
2018-03-24T19:54:09.121Z,7.10
2018-03-24T19:56:44.154Z,7.00
2018-03-24T19:59:18.971Z,7.00
2018-03-24T20:01:53.374Z,7.00
2018-03-24T20:04:28.030Z,6.90
2018-03-24T20:07:04.714Z,6.90
2018-03-24T20:09:41.699Z,6.90
2018-03-24T20:12:18.468Z,6.80
2018-03-24T20:17:58.120Z,6.70
2018-03-24T20:23:40.105Z,6.60
2018-03-24T20:26:18.277Z,6.50
2018-03-24T20:28:52.614Z,6.50
2018-03-24T20:31:27.494Z,6.50
2018-03-24T20:34:02.960Z,6.40
2018-03-24T20:36:36.962Z,6.40
2018-03-24T20:39:17.939Z,6.30
2018-03-24T20:44:42.112Z,6.20
2018-03-24T20:47:18.785Z,6.10
2018-03-24T20:49:53.950Z,6.00
2018-03-24T20:52:31.704Z,5.90
2018-03-24T20:55:07.046Z,5.90
2018-03-24T20:57:40.821Z,5.80
2018-03-24T21:00:21.056Z,5.80
2018-03-24T21:02:55.674Z,5.60
2018-03-24T21:05:29.377Z,5.60
2018-03-24T21:08:06.051Z,5.60
2018-03-24T21:10:41.397Z,5.50
2018-03-24T21:13:22.519Z,5.50
2018-03-24T21:15:56.278Z,5.40
2018-03-24T21:18:32.420Z,5.40
2018-03-24T21:21:06.019Z,5.40
2018-03-24T21:23:40.808Z,5.30
2018-03-24T21:26:16.058Z,5.20
2018-03-24T21:28:50.150Z,5.20
2018-03-24T21:31:24.977Z,5.20
2018-03-24T21:34:01.635Z,5.20
2018-03-24T21:36:35.429Z,5.10
2018-03-24T21:39:09.713Z,5.10
2018-03-24T21:41:44.912Z,5.10
2018-03-24T21:44:19.021Z,5.00
2018-03-24T21:46:53.033Z,5.00
2018-03-24T21:49:27.500Z,5.00
2018-03-24T21:52:01.478Z,5.00
2018-03-24T21:54:35.221Z,5.00
2018-03-24T21:57:10.073Z,5.00
2018-03-24T21:59:45.052Z,5.00
2018-03-24T22:02:18.632Z,5.00
2018-03-24T22:04:53.234Z,5.00
2018-03-24T22:07:27.839Z,5.00
2018-03-24T22:10:02.261Z,4.90
2018-03-24T22:12:35.939Z,4.90
2018-03-24T22:15:12.264Z,4.90
2018-03-24T22:17:46.031Z,4.80
2018-03-24T22:20:20.722Z,4.80
2018-03-24T22:22:56.248Z,4.70
2018-03-24T22:25:31.932Z,4.70
2018-03-24T22:28:06.479Z,4.70
2018-03-24T22:30:40.233Z,4.60
2018-03-24T22:33:13.947Z,4.60
2018-03-24T22:35:49.729Z,4.60
2018-03-24T22:38:23.550Z,4.50
2018-03-24T22:41:00.126Z,4.50
2018-03-24T22:43:36.515Z,4.40
2018-03-24T22:46:10.225Z,4.40
2018-03-24T22:48:44.648Z,4.40
2018-03-24T22:51:18.320Z,4.30
2018-03-24T22:53:52.581Z,4.30
2018-03-24T22:56:27.628Z,4.20
2018-03-24T22:59:04.116Z,4.20
2018-03-24T23:01:37.754Z,4.10
2018-03-24T23:04:11.458Z,4.00
2018-03-24T23:06:45.195Z,4.00
2018-03-24T23:09:19.650Z,3.90
2018-03-24T23:11:54.178Z,3.90
2018-03-24T23:14:29.657Z,3.90
2018-03-24T23:17:04.260Z,3.80
2018-03-24T23:19:38.012Z,3.80
2018-03-24T23:22:11.698Z,3.80
2018-03-24T23:24:46.225Z,3.80
2018-03-24T23:27:19.840Z,3.70
2018-03-24T23:29:54.496Z,3.70
2018-03-24T23:32:28.133Z,3.70
2018-03-24T23:35:01.873Z,3.60
2018-03-24T23:37:36.990Z,3.60
2018-03-24T23:40:10.651Z,3.60
2018-03-24T23:42:46.140Z,3.50
2018-03-24T23:45:20.235Z,3.50
2018-03-24T23:47:54.181Z,3.40
2018-03-24T23:50:28.843Z,3.40
2018-03-24T23:53:03.937Z,3.30
2018-03-24T23:55:37.715Z,3.30
2018-03-24T23:58:12.956Z,3.20
